sensor_id;sensor_type;location;lat;lon;timestamp;temperature;humidity
58809;DHT22;44579;51.672;7.834;2023-07-29T00:01:10;21.00;81.30
58809;DHT22;44579;51.672;7.834;2023-07-29T00:03:37;21.00;81.20
58809;DHT22;44579;51.672;7.834;2023-07-29T00:06:03;21.10;81.40
58809;DHT22;44579;51.672;7.834;2023-07-29T00:08:30;21.10;81.40
58809;DHT22;44579;51.672;7.834;2023-07-29T00:10:57;21.00;81.40
58809;DHT22;44579;51.672;7.834;2023-07-29T00:13:24;21.00;81.50
58809;DHT22;44579;51.672;7.834;2023-07-29T00:15:53;20.90;81.40
58809;DHT22;44579;51.672;7.834;2023-07-29T00:18:19;20.90;81.50
58809;DHT22;44579;51.672;7.834;2023-07-29T00:20:46;20.90;81.60
58809;DHT22;44579;51.672;7.834;2023-07-29T00:23:13;20.90;81.70
58809;DHT22;44579;51.672;7.834;2023-07-29T00:25:39;20.90;81.70
58809;DHT22;44579;51.672;7.834;2023-07-29T00:28:06;20.80;81.70
58809;DHT22;44579;51.672;7.834;2023-07-29T00:30:33;20.80;81.80
58809;DHT22;44579;51.672;7.834;2023-07-29T00:33:00;20.80;81.80
58809;DHT22;44579;51.672;7.834;2023-07-29T00:35:27;20.80;81.90
58809;DHT22;44579;51.672;7.834;2023-07-29T00:37:53;20.70;82.00
58809;DHT22;44579;51.672;7.834;2023-07-29T00:40:21;20.70;82.10
58809;DHT22;44579;51.672;7.834;2023-07-29T00:42:48;20.70;82.20
58809;DHT22;44579;51.672;7.834;2023-07-29T00:45:16;20.60;82.30
58809;DHT22;44579;51.672;7.834;2023-07-29T00:47:43;20.60;82.40
58809;DHT22;44579;51.672;7.834;2023-07-29T00:50:11;20.60;82.40
58809;DHT22;44579;51.672;7.834;2023-07-29T00:52:38;20.60;82.30
58809;DHT22;44579;51.672;7.834;2023-07-29T00:55:05;20.60;82.30
58809;DHT22;44579;51.672;7.834;2023-07-29T00:57:33;20.60;82.40
58809;DHT22;44579;51.672;7.834;2023-07-29T01:00:00;20.50;82.10
58809;DHT22;44579;51.672;7.834;2023-07-29T01:02:27;20.60;82.20
58809;DHT22;44579;51.672;7.834;2023-07-29T01:04:55;20.50;82.10
58809;DHT22;44579;51.672;7.834;2023-07-29T01:10:07;20.50;82.00
58809;DHT22;44579;51.672;7.834;2023-07-29T01:12:42;20.50;82.00
58809;DHT22;44579;51.672;7.834;2023-07-29T01:15:19;20.50;82.00
58809;DHT22;44579;51.672;7.834;2023-07-29T01:17:48;20.40;82.00
58809;DHT22;44579;51.672;7.834;2023-07-29T01:20:16;20.40;82.10
58809;DHT22;44579;51.672;7.834;2023-07-29T01:22:44;20.40;82.20
58809;DHT22;44579;51.672;7.834;2023-07-29T01:25:11;20.40;82.20
58809;DHT22;44579;51.672;7.834;2023-07-29T01:27:38;20.30;82.20
58809;DHT22;44579;51.672;7.834;2023-07-29T01:30:05;20.30;82.20
58809;DHT22;44579;51.672;7.834;2023-07-29T01:32:37;20.30;82.10
58809;DHT22;44579;51.672;7.834;2023-07-29T01:35:17;20.30;82.10
58809;DHT22;44579;51.672;7.834;2023-07-29T01:37:47;20.20;82.00
58809;DHT22;44579;51.672;7.834;2023-07-29T01:40:15;20.30;82.00
58809;DHT22;44579;51.672;7.834;2023-07-29T01:42:43;20.30;82.10
58809;DHT22;44579;51.672;7.834;2023-07-29T01:45:12;20.30;82.10
58809;DHT22;44579;51.672;7.834;2023-07-29T01:47:38;20.30;82.10
58809;DHT22;44579;51.672;7.834;2023-07-29T01:50:08;20.20;82.00
58809;DHT22;44579;51.672;7.834;2023-07-29T01:52:35;20.30;82.00
58809;DHT22;44579;51.672;7.834;2023-07-29T01:55:02;20.30;81.90
58809;DHT22;44579;51.672;7.834;2023-07-29T01:57:29;20.30;81.90
58809;DHT22;44579;51.672;7.834;2023-07-29T01:59:56;20.30;82.00
58809;DHT22;44579;51.672;7.834;2023-07-29T02:02:23;20.30;82.00
58809;DHT22;44579;51.672;7.834;2023-07-29T02:04:50;20.30;82.00
58809;DHT22;44579;51.672;7.834;2023-07-29T02:07:18;20.30;81.90
58809;DHT22;44579;51.672;7.834;2023-07-29T02:09:45;20.30;82.00
58809;DHT22;44579;51.672;7.834;2023-07-29T02:12:12;20.30;82.10
58809;DHT22;44579;51.672;7.834;2023-07-29T02:14:39;20.30;82.10
58809;DHT22;44579;51.672;7.834;2023-07-29T02:17:06;20.20;82.20
58809;DHT22;44579;51.672;7.834;2023-07-29T02:19:33;20.20;82.20
58809;DHT22;44579;51.672;7.834;2023-07-29T02:22:00;20.10;82.20
58809;DHT22;44579;51.672;7.834;2023-07-29T02:24:26;20.10;82.20
58809;DHT22;44579;51.672;7.834;2023-07-29T02:26:53;20.10;82.30
58809;DHT22;44579;51.672;7.834;2023-07-29T02:29:20;20.00;82.30
58809;DHT22;44579;51.672;7.834;2023-07-29T02:31:48;20.00;82.40
58809;DHT22;44579;51.672;7.834;2023-07-29T02:34:15;20.00;82.50
58809;DHT22;44579;51.672;7.834;2023-07-29T02:36:41;20.00;82.40
58809;DHT22;44579;51.672;7.834;2023-07-29T02:39:08;20.00;82.50
58809;DHT22;44579;51.672;7.834;2023-07-29T02:41:35;20.00;82.50
58809;DHT22;44579;51.672;7.834;2023-07-29T02:44:02;20.00;82.50
58809;DHT22;44579;51.672;7.834;2023-07-29T02:46:30;20.00;82.40
58809;DHT22;44579;51.672;7.834;2023-07-29T02:48:56;20.00;82.40
58809;DHT22;44579;51.672;7.834;2023-07-29T02:51:23;20.00;82.40
58809;DHT22;44579;51.672;7.834;2023-07-29T02:53:50;20.00;82.40
58809;DHT22;44579;51.672;7.834;2023-07-29T02:56:17;20.10;82.30
58809;DHT22;44579;51.672;7.834;2023-07-29T02:58:44;20.10;82.30
58809;DHT22;44579;51.672;7.834;2023-07-29T03:01:11;20.10;82.20
58809;DHT22;44579;51.672;7.834;2023-07-29T03:03:38;20.10;82.50
58809;DHT22;44579;51.672;7.834;2023-07-29T03:06:06;20.10;82.20
58809;DHT22;44579;51.672;7.834;2023-07-29T03:08:34;20.20;82.30
58809;DHT22;44579;51.672;7.834;2023-07-29T03:11:08;20.10;82.30
58809;DHT22;44579;51.672;7.834;2023-07-29T03:13:35;20.10;82.40
58809;DHT22;44579;51.672;7.834;2023-07-29T03:16:08;20.10;83.30
58809;DHT22;44579;51.672;7.834;2023-07-29T03:18:38;20.10;82.50
58809;DHT22;44579;51.672;7.834;2023-07-29T03:21:05;20.20;82.40
58809;DHT22;44579;51.672;7.834;2023-07-29T03:23:32;20.20;82.40
58809;DHT22;44579;51.672;7.834;2023-07-29T03:25:59;20.20;82.40
58809;DHT22;44579;51.672;7.834;2023-07-29T03:28:27;20.20;82.40
58809;DHT22;44579;51.672;7.834;2023-07-29T03:30:55;20.10;82.40
58809;DHT22;44579;51.672;7.834;2023-07-29T03:33:22;20.10;82.50
58809;DHT22;44579;51.672;7.834;2023-07-29T03:35:49;20.20;82.60
58809;DHT22;44579;51.672;7.834;2023-07-29T03:38:16;20.10;82.50
58809;DHT22;44579;51.672;7.834;2023-07-29T03:40:43;20.10;82.50
58809;DHT22;44579;51.672;7.834;2023-07-29T03:43:10;20.10;82.50
58809;DHT22;44579;51.672;7.834;2023-07-29T03:45:37;20.20;82.50
58809;DHT22;44579;51.672;7.834;2023-07-29T03:48:05;20.20;82.50
58809;DHT22;44579;51.672;7.834;2023-07-29T03:50:35;20.20;82.40
58809;DHT22;44579;51.672;7.834;2023-07-29T03:53:05;20.20;82.40
58809;DHT22;44579;51.672;7.834;2023-07-29T03:55:32;20.20;82.50
58809;DHT22;44579;51.672;7.834;2023-07-29T03:57:59;20.10;82.40
58809;DHT22;44579;51.672;7.834;2023-07-29T04:00:26;20.10;82.50
58809;DHT22;44579;51.672;7.834;2023-07-29T04:02:54;20.10;82.60
58809;DHT22;44579;51.672;7.834;2023-07-29T04:05:21;20.10;82.60
58809;DHT22;44579;51.672;7.834;2023-07-29T04:07:47;20.10;82.60
58809;DHT22;44579;51.672;7.834;2023-07-29T04:10:14;20.10;82.60
58809;DHT22;44579;51.672;7.834;2023-07-29T04:12:42;20.10;82.70
58809;DHT22;44579;51.672;7.834;2023-07-29T04:15:09;20.10;82.60
58809;DHT22;44579;51.672;7.834;2023-07-29T04:17:36;20.10;82.60
58809;DHT22;44579;51.672;7.834;2023-07-29T04:20:04;20.20;82.80
58809;DHT22;44579;51.672;7.834;2023-07-29T04:22:33;20.10;82.80
58809;DHT22;44579;51.672;7.834;2023-07-29T04:25:00;20.10;82.70
58809;DHT22;44579;51.672;7.834;2023-07-29T04:27:27;20.10;82.70
58809;DHT22;44579;51.672;7.834;2023-07-29T04:29:53;20.20;82.90
58809;DHT22;44579;51.672;7.834;2023-07-29T04:32:20;20.20;82.70
58809;DHT22;44579;51.672;7.834;2023-07-29T04:34:47;20.20;82.70
58809;DHT22;44579;51.672;7.834;2023-07-29T04:37:14;20.20;82.60
58809;DHT22;44579;51.672;7.834;2023-07-29T04:39:40;20.20;82.70
58809;DHT22;44579;51.672;7.834;2023-07-29T04:42:07;20.20;82.80
58809;DHT22;44579;51.672;7.834;2023-07-29T04:44:34;20.20;83.70
58809;DHT22;44579;51.672;7.834;2023-07-29T04:47:01;20.20;82.90
58809;DHT22;44579;51.672;7.834;2023-07-29T04:49:28;20.30;82.80
58809;DHT22;44579;51.672;7.834;2023-07-29T04:51:55;20.30;82.80
58809;DHT22;44579;51.672;7.834;2023-07-29T04:54:22;20.30;82.70
58809;DHT22;44579;51.672;7.834;2023-07-29T04:56:49;20.30;82.80
58809;DHT22;44579;51.672;7.834;2023-07-29T04:59:16;20.40;82.90
58809;DHT22;44579;51.672;7.834;2023-07-29T05:01:43;20.30;82.80
58809;DHT22;44579;51.672;7.834;2023-07-29T05:04:10;20.40;82.90
58809;DHT22;44579;51.672;7.834;2023-07-29T05:06:37;20.40;83.00
58809;DHT22;44579;51.672;7.834;2023-07-29T05:09:14;20.40;83.00
58809;DHT22;44579;51.672;7.834;2023-07-29T05:11:42;20.40;83.00
58809;DHT22;44579;51.672;7.834;2023-07-29T05:14:12;20.50;83.10
58809;DHT22;44579;51.672;7.834;2023-07-29T05:16:39;20.50;83.20
58809;DHT22;44579;51.672;7.834;2023-07-29T05:19:05;20.50;83.20
58809;DHT22;44579;51.672;7.834;2023-07-29T05:21:32;20.50;83.20
58809;DHT22;44579;51.672;7.834;2023-07-29T05:23:59;20.50;83.20
58809;DHT22;44579;51.672;7.834;2023-07-29T05:26:26;20.50;83.40
58809;DHT22;44579;51.672;7.834;2023-07-29T05:28:53;20.50;83.50
58809;DHT22;44579;51.672;7.834;2023-07-29T05:31:19;20.50;83.60
58809;DHT22;44579;51.672;7.834;2023-07-29T05:33:46;20.40;83.60
58809;DHT22;44579;51.672;7.834;2023-07-29T05:36:14;20.40;83.80
58809;DHT22;44579;51.672;7.834;2023-07-29T05:38:41;20.40;83.80
58809;DHT22;44579;51.672;7.834;2023-07-29T05:41:08;20.40;83.80
58809;DHT22;44579;51.672;7.834;2023-07-29T05:43:35;20.40;83.90
58809;DHT22;44579;51.672;7.834;2023-07-29T05:46:01;20.40;83.90
58809;DHT22;44579;51.672;7.834;2023-07-29T05:48:29;20.30;83.90
58809;DHT22;44579;51.672;7.834;2023-07-29T05:50:56;20.30;84.00
58809;DHT22;44579;51.672;7.834;2023-07-29T05:53:28;20.30;84.00
58809;DHT22;44579;51.672;7.834;2023-07-29T05:55:58;20.30;84.00
58809;DHT22;44579;51.672;7.834;2023-07-29T05:58:25;20.40;84.10
58809;DHT22;44579;51.672;7.834;2023-07-29T06:00:52;20.30;84.30
58809;DHT22;44579;51.672;7.834;2023-07-29T06:03:20;20.40;84.40
58809;DHT22;44579;51.672;7.834;2023-07-29T06:05:49;20.40;84.40
58809;DHT22;44579;51.672;7.834;2023-07-29T06:08:20;20.50;84.30
58809;DHT22;44579;51.672;7.834;2023-07-29T06:10:47;20.70;84.30
58809;DHT22;44579;51.672;7.834;2023-07-29T06:13:14;20.70;84.20
58809;DHT22;44579;51.672;7.834;2023-07-29T06:15:41;20.90;84.20
58809;DHT22;44579;51.672;7.834;2023-07-29T06:18:08;21.00;84.10
58809;DHT22;44579;51.672;7.834;2023-07-29T06:20:34;21.00;84.10
58809;DHT22;44579;51.672;7.834;2023-07-29T06:23:02;21.00;84.30
58809;DHT22;44579;51.672;7.834;2023-07-29T06:25:28;21.00;84.30
58809;DHT22;44579;51.672;7.834;2023-07-29T06:27:55;21.00;84.50
58809;DHT22;44579;51.672;7.834;2023-07-29T06:30:22;21.10;84.60
58809;DHT22;44579;51.672;7.834;2023-07-29T06:32:49;21.00;84.70
58809;DHT22;44579;51.672;7.834;2023-07-29T06:35:16;21.00;84.90
58809;DHT22;44579;51.672;7.834;2023-07-29T06:37:43;21.00;84.90
58809;DHT22;44579;51.672;7.834;2023-07-29T06:40:10;20.90;85.10
58809;DHT22;44579;51.672;7.834;2023-07-29T06:42:36;21.00;85.30
58809;DHT22;44579;51.672;7.834;2023-07-29T06:45:07;21.00;85.30
58809;DHT22;44579;51.672;7.834;2023-07-29T06:47:36;21.00;85.30
58809;DHT22;44579;51.672;7.834;2023-07-29T06:50:03;20.90;85.30
58809;DHT22;44579;51.672;7.834;2023-07-29T06:52:29;20.90;85.40
58809;DHT22;44579;51.672;7.834;2023-07-29T06:54:56;21.00;86.50
58809;DHT22;44579;51.672;7.834;2023-07-29T06:57:23;20.90;85.60
58809;DHT22;44579;51.672;7.834;2023-07-29T06:59:50;20.90;85.70
58809;DHT22;44579;51.672;7.834;2023-07-29T07:02:17;21.00;85.70
58809;DHT22;44579;51.672;7.834;2023-07-29T07:04:43;21.00;85.80
58809;DHT22;44579;51.672;7.834;2023-07-29T07:07:11;20.90;86.10
58809;DHT22;44579;51.672;7.834;2023-07-29T07:09:38;20.90;86.20
58809;DHT22;44579;51.672;7.834;2023-07-29T07:12:05;21.00;86.20
58809;DHT22;44579;51.672;7.834;2023-07-29T07:14:32;21.10;86.10
58809;DHT22;44579;51.672;7.834;2023-07-29T07:16:59;21.10;86.10
58809;DHT22;44579;51.672;7.834;2023-07-29T07:19:25;21.00;86.20
58809;DHT22;44579;51.672;7.834;2023-07-29T07:21:52;21.00;86.40
58809;DHT22;44579;51.672;7.834;2023-07-29T07:24:19;21.10;86.50
58809;DHT22;44579;51.672;7.834;2023-07-29T07:26:46;21.10;86.50
58809;DHT22;44579;51.672;7.834;2023-07-29T07:29:12;21.10;86.50
58809;DHT22;44579;51.672;7.834;2023-07-29T07:31:39;21.10;86.50
58809;DHT22;44579;51.672;7.834;2023-07-29T07:34:06;21.10;86.50
58809;DHT22;44579;51.672;7.834;2023-07-29T07:36:33;21.20;86.70
58809;DHT22;44579;51.672;7.834;2023-07-29T07:39:00;21.20;86.70
58809;DHT22;44579;51.672;7.834;2023-07-29T07:41:27;21.10;86.60
58809;DHT22;44579;51.672;7.834;2023-07-29T07:43:54;21.10;86.60
58809;DHT22;44579;51.672;7.834;2023-07-29T07:46:20;21.10;86.80
58809;DHT22;44579;51.672;7.834;2023-07-29T07:48:47;21.00;86.80
58809;DHT22;44579;51.672;7.834;2023-07-29T07:51:14;20.90;87.10
58809;DHT22;44579;51.672;7.834;2023-07-29T07:53:41;21.00;87.30
58809;DHT22;44579;51.672;7.834;2023-07-29T07:56:08;21.00;87.10
58809;DHT22;44579;51.672;7.834;2023-07-29T07:58:35;21.00;86.80
58809;DHT22;44579;51.672;7.834;2023-07-29T08:01:06;21.00;86.80
58809;DHT22;44579;51.672;7.834;2023-07-29T08:03:34;21.00;86.60
58809;DHT22;44579;51.672;7.834;2023-07-29T08:06:01;21.10;86.70
58809;DHT22;44579;51.672;7.834;2023-07-29T08:08:31;21.00;85.80
58809;DHT22;44579;51.672;7.834;2023-07-29T08:10:59;21.10;86.00
58809;DHT22;44579;51.672;7.834;2023-07-29T08:13:36;21.10;86.10
58809;DHT22;44579;51.672;7.834;2023-07-29T08:16:03;21.20;86.20
58809;DHT22;44579;51.672;7.834;2023-07-29T08:18:30;21.30;85.90
58809;DHT22;44579;51.672;7.834;2023-07-29T08:20:57;21.40;85.90
58809;DHT22;44579;51.672;7.834;2023-07-29T08:23:25;21.50;85.60
58809;DHT22;44579;51.672;7.834;2023-07-29T08:25:53;21.60;85.50
58809;DHT22;44579;51.672;7.834;2023-07-29T08:28:20;21.70;85.60
58809;DHT22;44579;51.672;7.834;2023-07-29T08:30:47;21.70;85.60
58809;DHT22;44579;51.672;7.834;2023-07-29T08:33:14;21.80;85.60
58809;DHT22;44579;51.672;7.834;2023-07-29T08:35:41;22.00;85.40
58809;DHT22;44579;51.672;7.834;2023-07-29T08:38:08;21.90;85.10
58809;DHT22;44579;51.672;7.834;2023-07-29T08:40:34;21.80;85.00
58809;DHT22;44579;51.672;7.834;2023-07-29T08:43:04;21.80;85.00
58809;DHT22;44579;51.672;7.834;2023-07-29T08:45:34;21.90;85.10
58809;DHT22;44579;51.672;7.834;2023-07-29T08:48:02;21.90;83.80
58809;DHT22;44579;51.672;7.834;2023-07-29T08:50:32;22.00;83.90
58809;DHT22;44579;51.672;7.834;2023-07-29T08:53:06;21.90;84.60
58809;DHT22;44579;51.672;7.834;2023-07-29T08:55:36;22.00;84.00
58809;DHT22;44579;51.672;7.834;2023-07-29T08:58:03;22.00;84.00
58809;DHT22;44579;51.672;7.834;2023-07-29T09:00:32;22.10;83.80
58809;DHT22;44579;51.672;7.834;2023-07-29T09:02:59;22.20;84.00
58809;DHT22;44579;51.672;7.834;2023-07-29T09:05:33;22.20;84.10
58809;DHT22;44579;51.672;7.834;2023-07-29T09:07:59;22.30;84.10
58809;DHT22;44579;51.672;7.834;2023-07-29T09:10:28;22.50;84.30
58809;DHT22;44579;51.672;7.834;2023-07-29T09:12:54;22.70;84.40
58809;DHT22;44579;51.672;7.834;2023-07-29T09:15:28;22.80;83.90
58809;DHT22;44579;51.672;7.834;2023-07-29T09:17:56;23.00;84.10
58809;DHT22;44579;51.672;7.834;2023-07-29T09:20:27;23.10;84.10
58809;DHT22;44579;51.672;7.834;2023-07-29T09:22:55;23.20;84.30
58809;DHT22;44579;51.672;7.834;2023-07-29T09:25:29;23.20;84.50
58809;DHT22;44579;51.672;7.834;2023-07-29T09:27:59;23.20;84.50
58809;DHT22;44579;51.672;7.834;2023-07-29T09:30:29;23.30;84.60
58809;DHT22;44579;51.672;7.834;2023-07-29T09:32:56;23.20;84.60
58809;DHT22;44579;51.672;7.834;2023-07-29T09:35:24;23.30;84.60
58809;DHT22;44579;51.672;7.834;2023-07-29T09:37:52;23.30;84.60
58809;DHT22;44579;51.672;7.834;2023-07-29T09:40:19;23.40;84.60
58809;DHT22;44579;51.672;7.834;2023-07-29T09:42:50;23.40;84.70
58809;DHT22;44579;51.672;7.834;2023-07-29T09:45:28;23.50;84.00
58809;DHT22;44579;51.672;7.834;2023-07-29T09:47:56;23.50;84.10
58809;DHT22;44579;51.672;7.834;2023-07-29T09:50:24;23.60;84.10
58809;DHT22;44579;51.672;7.834;2023-07-29T09:52:51;23.60;84.20
58809;DHT22;44579;51.672;7.834;2023-07-29T09:55:19;23.50;84.40
58809;DHT22;44579;51.672;7.834;2023-07-29T09:57:46;23.60;84.50
58809;DHT22;44579;51.672;7.834;2023-07-29T10:00:13;23.60;84.70
58809;DHT22;44579;51.672;7.834;2023-07-29T10:02:41;23.60;84.80
58809;DHT22;44579;51.672;7.834;2023-07-29T10:05:09;23.70;85.20
58809;DHT22;44579;51.672;7.834;2023-07-29T10:07:37;23.80;84.80
58809;DHT22;44579;51.672;7.834;2023-07-29T10:10:06;23.80;85.00
58809;DHT22;44579;51.672;7.834;2023-07-29T10:12:34;23.90;85.20
58809;DHT22;44579;51.672;7.834;2023-07-29T10:15:03;23.90;85.10
58809;DHT22;44579;51.672;7.834;2023-07-29T10:17:30;24.00;85.10
58809;DHT22;44579;51.672;7.834;2023-07-29T10:19:57;24.00;84.90
58809;DHT22;44579;51.672;7.834;2023-07-29T10:22:28;24.00;84.70
58809;DHT22;44579;51.672;7.834;2023-07-29T10:24:56;24.00;84.60
58809;DHT22;44579;51.672;7.834;2023-07-29T10:27:24;24.10;84.70
58809;DHT22;44579;51.672;7.834;2023-07-29T10:29:51;24.20;84.80
58809;DHT22;44579;51.672;7.834;2023-07-29T10:32:19;24.30;84.50
58809;DHT22;44579;51.672;7.834;2023-07-29T10:34:49;24.40;84.30
58809;DHT22;44579;51.672;7.834;2023-07-29T10:37:16;24.50;85.00
58809;DHT22;44579;51.672;7.834;2023-07-29T10:39:51;24.50;84.70
58809;DHT22;44579;51.672;7.834;2023-07-29T10:42:18;24.50;84.70
58809;DHT22;44579;51.672;7.834;2023-07-29T10:44:49;24.60;84.50
58809;DHT22;44579;51.672;7.834;2023-07-29T10:47:29;24.70;85.00
58809;DHT22;44579;51.672;7.834;2023-07-29T10:49:58;24.80;85.10
58809;DHT22;44579;51.672;7.834;2023-07-29T10:55:02;24.90;84.70
58809;DHT22;44579;51.672;7.834;2023-07-29T10:57:30;24.90;84.60
58809;DHT22;44579;51.672;7.834;2023-07-29T10:59:58;24.90;85.00
58809;DHT22;44579;51.672;7.834;2023-07-29T11:02:32;24.90;85.10
58809;DHT22;44579;51.672;7.834;2023-07-29T11:05:00;24.80;85.50
58809;DHT22;44579;51.672;7.834;2023-07-29T11:07:31;24.70;85.80
58809;DHT22;44579;51.672;7.834;2023-07-29T11:09:58;24.60;85.80
58809;DHT22;44579;51.672;7.834;2023-07-29T11:12:45;24.50;85.30
58809;DHT22;44579;51.672;7.834;2023-07-29T11:15:17;24.40;85.10
58809;DHT22;44579;51.672;7.834;2023-07-29T11:17:56;24.30;84.20
58809;DHT22;44579;51.672;7.834;2023-07-29T11:20:24;24.30;84.10
58809;DHT22;44579;51.672;7.834;2023-07-29T11:22:52;24.30;84.30
58809;DHT22;44579;51.672;7.834;2023-07-29T11:25:20;24.30;84.00
58809;DHT22;44579;51.672;7.834;2023-07-29T11:27:47;24.30;83.80
58809;DHT22;44579;51.672;7.834;2023-07-29T11:30:16;24.30;83.60
58809;DHT22;44579;51.672;7.834;2023-07-29T11:32:43;24.30;83.50
58809;DHT22;44579;51.672;7.834;2023-07-29T11:35:11;24.30;83.80
58809;DHT22;44579;51.672;7.834;2023-07-29T11:37:39;24.30;83.90
58809;DHT22;44579;51.672;7.834;2023-07-29T11:40:06;24.40;83.90
58809;DHT22;44579;51.672;7.834;2023-07-29T11:42:33;24.40;83.80
58809;DHT22;44579;51.672;7.834;2023-07-29T11:45:01;24.50;83.20
58809;DHT22;44579;51.672;7.834;2023-07-29T11:47:28;24.60;83.10
58809;DHT22;44579;51.672;7.834;2023-07-29T11:49:58;24.60;83.00
58809;DHT22;44579;51.672;7.834;2023-07-29T11:52:25;24.70;83.10
58809;DHT22;44579;51.672;7.834;2023-07-29T11:54:51;24.70;82.80
58809;DHT22;44579;51.672;7.834;2023-07-29T11:57:19;24.80;82.80
58809;DHT22;44579;51.672;7.834;2023-07-29T11:59:46;24.90;82.50
58809;DHT22;44579;51.672;7.834;2023-07-29T12:02:14;24.80;82.40
58809;DHT22;44579;51.672;7.834;2023-07-29T12:04:41;24.70;82.20
58809;DHT22;44579;51.672;7.834;2023-07-29T12:07:09;24.70;82.30
58809;DHT22;44579;51.672;7.834;2023-07-29T12:09:37;24.70;82.00
58809;DHT22;44579;51.672;7.834;2023-07-29T12:12:04;24.70;81.80
58809;DHT22;44579;51.672;7.834;2023-07-29T12:14:32;24.80;81.70
58809;DHT22;44579;51.672;7.834;2023-07-29T12:16:59;24.80;81.40
58809;DHT22;44579;51.672;7.834;2023-07-29T12:22:03;24.90;80.80
58809;DHT22;44579;51.672;7.834;2023-07-29T12:24:31;25.10;80.40
58809;DHT22;44579;51.672;7.834;2023-07-29T12:26:58;25.20;80.10
58809;DHT22;44579;51.672;7.834;2023-07-29T12:29:26;25.30;80.00
58809;DHT22;44579;51.672;7.834;2023-07-29T12:32:00;25.40;79.60
58809;DHT22;44579;51.672;7.834;2023-07-29T12:34:29;25.40;79.50
58809;DHT22;44579;51.672;7.834;2023-07-29T12:36:58;25.40;79.40
58809;DHT22;44579;51.672;7.834;2023-07-29T12:39:26;25.50;79.30
58809;DHT22;44579;51.672;7.834;2023-07-29T12:41:54;25.50;79.00
58809;DHT22;44579;51.672;7.834;2023-07-29T12:44:35;25.50;78.90
58809;DHT22;44579;51.672;7.834;2023-07-29T12:47:02;25.40;78.30
58809;DHT22;44579;51.672;7.834;2023-07-29T12:49:31;25.30;78.10
58809;DHT22;44579;51.672;7.834;2023-07-29T12:52:00;25.30;78.20
58809;DHT22;44579;51.672;7.834;2023-07-29T12:54:27;25.30;78.10
58809;DHT22;44579;51.672;7.834;2023-07-29T12:56:54;25.20;77.90
58809;DHT22;44579;51.672;7.834;2023-07-29T12:59:21;25.10;78.10
58809;DHT22;44579;51.672;7.834;2023-07-29T13:01:48;25.00;78.00
58809;DHT22;44579;51.672;7.834;2023-07-29T13:04:15;24.90;77.70
58809;DHT22;44579;51.672;7.834;2023-07-29T13:06:42;24.80;77.80
58809;DHT22;44579;51.672;7.834;2023-07-29T13:09:09;24.80;77.50
58809;DHT22;44579;51.672;7.834;2023-07-29T13:11:35;24.80;77.10
58809;DHT22;44579;51.672;7.834;2023-07-29T13:14:03;24.80;76.90
58809;DHT22;44579;51.672;7.834;2023-07-29T13:16:29;24.80;76.70
58809;DHT22;44579;51.672;7.834;2023-07-29T13:18:57;24.80;76.50
58809;DHT22;44579;51.672;7.834;2023-07-29T13:21:23;24.80;76.30
58809;DHT22;44579;51.672;7.834;2023-07-29T13:23:51;25.00;76.20
58809;DHT22;44579;51.672;7.834;2023-07-29T13:26:18;25.20;76.10
58809;DHT22;44579;51.672;7.834;2023-07-29T13:28:44;25.20;75.80
58809;DHT22;44579;51.672;7.834;2023-07-29T13:31:11;25.30;75.40
58809;DHT22;44579;51.672;7.834;2023-07-29T13:33:39;25.30;75.30
58809;DHT22;44579;51.672;7.834;2023-07-29T13:36:06;25.30;75.00
58809;DHT22;44579;51.672;7.834;2023-07-29T13:38:35;25.30;74.80
58809;DHT22;44579;51.672;7.834;2023-07-29T13:41:02;25.40;74.60
58809;DHT22;44579;51.672;7.834;2023-07-29T13:43:29;25.50;74.30
58809;DHT22;44579;51.672;7.834;2023-07-29T13:45:55;25.50;74.00
58809;DHT22;44579;51.672;7.834;2023-07-29T13:48:23;25.50;74.00
58809;DHT22;44579;51.672;7.834;2023-07-29T13:50:50;25.60;73.70
58809;DHT22;44579;51.672;7.834;2023-07-29T13:53:17;25.70;73.50
58809;DHT22;44579;51.672;7.834;2023-07-29T13:55:45;25.70;73.00
58809;DHT22;44579;51.672;7.834;2023-07-29T13:58:11;25.70;72.80
58809;DHT22;44579;51.672;7.834;2023-07-29T14:00:38;25.70;72.60
58809;DHT22;44579;51.672;7.834;2023-07-29T14:03:05;25.70;72.40
58809;DHT22;44579;51.672;7.834;2023-07-29T14:05:32;25.70;72.10
58809;DHT22;44579;51.672;7.834;2023-07-29T14:07:58;25.70;72.20
58809;DHT22;44579;51.672;7.834;2023-07-29T14:10:25;25.80;71.80
58809;DHT22;44579;51.672;7.834;2023-07-29T14:12:52;25.80;71.70
58809;DHT22;44579;51.672;7.834;2023-07-29T14:15:19;25.80;71.80
58809;DHT22;44579;51.672;7.834;2023-07-29T14:17:46;25.70;71.30
58809;DHT22;44579;51.672;7.834;2023-07-29T14:20:13;25.60;71.00
58809;DHT22;44579;51.672;7.834;2023-07-29T14:22:39;25.40;70.80
58809;DHT22;44579;51.672;7.834;2023-07-29T14:25:06;25.30;70.90
58809;DHT22;44579;51.672;7.834;2023-07-29T14:27:34;25.10;70.30
58809;DHT22;44579;51.672;7.834;2023-07-29T14:30:01;25.00;70.30
58809;DHT22;44579;51.672;7.834;2023-07-29T14:32:28;24.90;70.30
58809;DHT22;44579;51.672;7.834;2023-07-29T14:34:55;24.80;69.90
58809;DHT22;44579;51.672;7.834;2023-07-29T14:37:22;24.70;70.00
58809;DHT22;44579;51.672;7.834;2023-07-29T14:39:49;24.60;69.40
58809;DHT22;44579;51.672;7.834;2023-07-29T14:42:15;24.50;69.60
58809;DHT22;44579;51.672;7.834;2023-07-29T14:44:42;24.40;69.50
58809;DHT22;44579;51.672;7.834;2023-07-29T14:47:09;24.30;69.40
58809;DHT22;44579;51.672;7.834;2023-07-29T14:49:36;24.20;69.50
58809;DHT22;44579;51.672;7.834;2023-07-29T14:52:03;24.10;69.60
58809;DHT22;44579;51.672;7.834;2023-07-29T14:54:29;24.00;69.90
58809;DHT22;44579;51.672;7.834;2023-07-29T14:56:56;23.80;70.00
58809;DHT22;44579;51.672;7.834;2023-07-29T14:59:23;23.50;70.20
58809;DHT22;44579;51.672;7.834;2023-07-29T15:01:50;22.80;71.70
58809;DHT22;44579;51.672;7.834;2023-07-29T15:04:16;21.70;75.50
58809;DHT22;44579;51.672;7.834;2023-07-29T15:06:43;20.90;79.80
58809;DHT22;44579;51.672;7.834;2023-07-29T15:09:10;20.10;83.50
58809;DHT22;44579;51.672;7.834;2023-07-29T15:11:37;19.20;89.00
58809;DHT22;44579;51.672;7.834;2023-07-29T15:14:04;18.60;91.50
58809;DHT22;44579;51.672;7.834;2023-07-29T15:16:30;18.20;92.80
58809;DHT22;44579;51.672;7.834;2023-07-29T15:18:58;18.10;93.00
58809;DHT22;44579;51.672;7.834;2023-07-29T15:21:24;18.10;92.50
58809;DHT22;44579;51.672;7.834;2023-07-29T15:23:51;18.50;91.60
58809;DHT22;44579;51.672;7.834;2023-07-29T15:26:18;18.70;90.60
58809;DHT22;44579;51.672;7.834;2023-07-29T15:28:45;18.80;90.00
58809;DHT22;44579;51.672;7.834;2023-07-29T15:31:15;18.90;88.60
58809;DHT22;44579;51.672;7.834;2023-07-29T15:33:41;19.00;87.80
58809;DHT22;44579;51.672;7.834;2023-07-29T15:36:08;19.10;87.00
58809;DHT22;44579;51.672;7.834;2023-07-29T15:38:35;19.20;86.60
58809;DHT22;44579;51.672;7.834;2023-07-29T15:41:02;19.40;86.40